Terminal Aerodrome Forecast
Issued by NWS Cleveland, OH

Home | Current Version | Previous Version | Graphics & Text | Print | Product List | Glossary On
Versions: 1 2 3 4 5 6 7 8 9 10 11 12 13 14 15 16 17 18 19 20
000
FTUS41 KCLE 232332
TAFERI
TAF
KERI 232332Z 2400/2424 VRB03KT P6SM BKN070
     FM240300 04005KT P6SM -SHRA BKN040
     FM240700 11008KT 3SM -SHRA BR OVC025
     FM241100 14008KT P6SM BKN035
     FM241400 18013G21KT P6SM SCT045=

USA.gov is the U.S. government's official web portal to all federal, state and local government web resources and services.